Time;durP1;ratioP1;P1;durP2;ratioP2;P2;SDS_P1;SDS_P2;PMS_P1;PMS_P2;Temp;Humidity;BMP_temperature;BMP_pressure;BME280_temperature;BME280_humidity;BME280_pressure;Samples;Min_cycle;Max_cycle;Signal;HPM_P1;HPM_P2
2022/03/22 00:01:28;;;;;;;36.83;17.03;;;3.80;74.10;;;;;;5012924;28;20187;-65
2022/03/22 00:03:54;;;;;;;39.60;17.17;;;3.80;74.10;;;;;;5031260;28;20198;-66
2022/03/22 00:06:20;;;;;;;36.70;15.73;;;3.80;74.30;;;;;;5030256;28;20229;-65
2022/03/22 00:08:47;;;;;;;41.40;18.30;;;3.70;74.70;;;;;;5031184;28;20299;-67
2022/03/22 00:11:13;;;;;;;36.70;17.00;;;3.80;74.80;;;;;;5031274;28;20191;-64
2022/03/22 00:13:42;;;;;;;40.23;16.47;;;3.80;74.90;;;;;;5031067;28;20181;-66
2022/03/22 00:16:08;;;;;;;38.07;17.03;;;3.70;75.00;;;;;;5030812;28;20202;-66
2022/03/22 00:18:35;;;;;;;41.80;18.30;;;3.70;75.30;;;;;;5030654;28;20198;-66
2022/03/22 00:21:00;;;;;;;39.00;16.67;;;3.70;75.50;;;;;;5031163;28;20178;-66
2022/03/22 00:23:26;;;;;;;36.37;16.73;;;3.70;75.60;;;;;;5030799;28;20699;-66
2022/03/22 00:25:52;;;;;;;37.77;15.93;;;3.70;75.70;;;;;;5033108;28;20221;-66
2022/03/22 00:28:19;;;;;;;40.37;17.37;;;3.60;75.90;;;;;;5033051;28;20616;-66
2022/03/22 00:30:44;;;;;;;46.50;16.53;;;3.70;76.10;;;;;;5035067;28;20190;-66
2022/03/22 00:33:10;;;;;;;39.97;16.53;;;3.70;76.80;;;;;;5016833;28;20544;-67
2022/03/22 00:35:38;;;;;;;40.60;16.90;;;3.70;76.20;;;;;;5027895;28;20175;-65
2022/03/22 00:38:12;;;;;;;39.77;17.40;;;3.70;76.30;;;;;;5014368;28;20179;-66
2022/03/22 00:40:39;;;;;;;34.70;15.27;;;3.60;76.50;;;;;;5014759;28;20213;-66
2022/03/22 00:43:05;;;;;;;37.03;17.37;;;3.60;76.90;;;;;;5014651;28;20214;-66
2022/03/22 00:45:32;;;;;;;39.43;17.00;;;3.60;77.10;;;;;;4996640;28;20190;-66
2022/03/22 00:47:59;;;;;;;38.03;16.73;;;3.60;77.00;;;;;;5014386;28;20196;-66
2022/03/22 00:50:31;;;;;;;35.10;16.60;;;3.70;77.20;;;;;;4996830;28;20183;-66
2022/03/22 00:52:58;;;;;;;43.07;16.40;;;3.70;77.30;;;;;;4996993;28;20539;-65
2022/03/22 00:55:24;;;;;;;35.73;16.53;;;3.60;77.50;;;;;;5013818;28;20531;-66
2022/03/22 00:57:52;;;;;;;35.50;16.17;;;3.60;77.60;;;;;;5014359;28;20948;-66
2022/03/22 01:00:19;;;;;;;39.87;15.77;;;3.60;77.80;;;;;;4996533;28;20321;-66
2022/03/22 01:02:49;;;;;;;39.83;15.87;;;3.60;78.10;;;;;;5014474;28;20340;-66
2022/03/22 01:05:18;;;;;;;37.73;15.93;;;3.60;78.20;;;;;;5014536;28;20190;-66
2022/03/22 01:07:47;;;;;;;32.77;14.93;;;3.60;78.30;;;;;;5014321;28;20226;-66
2022/03/22 01:10:15;;;;;;;35.63;16.37;;;3.70;78.50;;;;;;4996973;28;20187;-66
2022/03/22 01:12:43;;;;;;;35.77;17.10;;;3.70;78.50;;;;;;5013991;28;20193;-66
2022/03/22 01:15:15;;;;;;;36.90;16.13;;;3.80;78.70;;;;;;5013978;28;20653;-65
2022/03/22 01:17:42;;;;;;;36.50;16.73;;;3.80;78.60;;;;;;5013963;28;20175;-66
2022/03/22 01:20:11;;;;;;;25.73;12.57;;;3.70;78.60;;;;;;5014093;28;20178;-66
2022/03/22 01:22:39;;;;;;;33.70;15.57;;;3.70;79.00;;;;;;5014087;28;20346;-67
2022/03/22 01:25:13;;;;;;;32.10;15.00;;;3.70;79.20;;;;;;5013780;28;20182;-64
2022/03/22 01:27:40;;;;;;;34.57;16.50;;;3.60;79.40;;;;;;5013792;28;20654;-65
2022/03/22 01:30:07;;;;;;;30.83;14.63;;;3.50;79.90;;;;;;5013551;28;20245;-65
2022/03/22 01:32:34;;;;;;;35.53;15.67;;;3.50;80.30;;;;;;4979903;28;20620;-65
2022/03/22 01:35:02;;;;;;;33.07;16.20;;;3.50;80.50;;;;;;5015053;28;20182;-65
2022/03/22 01:37:28;;;;;;;34.33;15.90;;;3.50;80.80;;;;;;5032212;28;20553;-65
2022/03/22 01:39:53;;;;;;;35.10;16.77;;;3.50;81.10;;;;;;5033236;28;20213;-65
2022/03/22 01:42:21;;;;;;;30.43;13.00;;;3.40;81.40;;;;;;5033058;28;20183;-64
2022/03/22 01:44:51;;;;;;;30.87;15.23;;;3.40;81.90;;;;;;5023769;28;20548;-65
2022/03/22 01:47:19;;;;;;;37.43;15.80;;;3.40;82.30;;;;;;5011100;28;20218;-66
2022/03/22 01:49:45;;;;;;;35.87;15.53;;;3.20;82.70;;;;;;5010845;28;20281;-65
2022/03/22 01:52:15;;;;;;;34.70;14.33;;;3.30;83.10;;;;;;5010413;28;20544;-66
2022/03/22 01:54:42;;;;;;;36.23;15.23;;;3.30;83.50;;;;;;5012573;28;20639;-66
2022/03/22 01:57:08;;;;;;;32.00;14.83;;;3.20;83.80;;;;;;5013436;28;20536;-66
2022/03/22 01:59:34;;;;;;;33.47;14.20;;;3.20;84.00;;;;;;5013004;28;20193;-67
2022/03/22 02:07:32;;;;;;;37.40;16.57;;;3.10;85.10;;;;;;5011802;28;20209;-66
2022/03/22 02:09:58;;;;;;;36.70;15.07;;;3.10;85.70;;;;;;5013045;28;20172;-66
2022/03/22 02:12:24;;;;;;;35.07;15.53;;;3.20;85.80;;;;;;5011525;28;20547;-66
2022/03/22 02:14:50;;;;;;;32.90;17.03;;;3.20;86.00;;;;;;5011643;28;20183;-66
2022/03/22 02:17:15;;;;;;;33.70;15.03;;;3.10;86.40;;;;;;5013071;28;20186;-66
2022/03/22 02:19:41;;;;;;;33.87;15.23;;;3.10;86.70;;;;;;5012722;28;20547;-66
2022/03/22 02:22:11;;;;;;;31.90;15.67;;;3.10;87.00;;;;;;5013075;28;20202;-65
2022/03/22 02:24:37;;;;;;;32.13;15.83;;;3.20;87.10;;;;;;5012396;28;20190;-65
2022/03/22 02:27:04;;;;;;;34.77;15.37;;;3.20;87.30;;;;;;5012475;28;20252;-65
2022/03/22 02:29:29;;;;;;;32.97;14.43;;;3.10;87.60;;;;;;5012185;28;20260;-65
2022/03/22 02:31:55;;;;;;;36.87;16.87;;;3.10;87.90;;;;;;5011218;28;20265;-65
2022/03/22 02:34:21;;;;;;;29.40;14.50;;;3.10;88.20;;;;;;5012211;28;20183;-63
2022/03/22 02:36:46;;;;;;;36.87;15.83;;;3.20;88.50;;;;;;5014844;28;20699;-66
2022/03/22 02:39:12;;;;;;;39.73;15.13;;;3.20;88.70;;;;;;5032398;28;20185;-66
2022/03/22 02:41:38;;;;;;;32.97;14.27;;;3.10;88.80;;;;;;5013963;28;20189;-66
2022/03/22 02:44:04;;;;;;;35.60;15.67;;;3.10;89.00;;;;;;5032334;28;20188;-66
2022/03/22 02:46:30;;;;;;;34.00;15.67;;;3.10;89.30;;;;;;5031774;28;20213;-66
2022/03/22 02:48:56;;;;;;;35.20;16.20;;;3.20;89.50;;;;;;5031603;28;20371;-66
2022/03/22 02:51:22;;;;;;;39.83;15.57;;;3.20;89.50;;;;;;5031660;28;20198;-63
2022/03/22 02:53:47;;;;;;;33.90;15.80;;;3.10;89.70;;;;;;5032189;28;20189;-66
2022/03/22 02:56:13;;;;;;;34.00;14.63;;;3.10;90.10;;;;;;5031633;28;20219;-67
2022/03/22 02:58:39;;;;;;;28.97;14.67;;;3.10;90.20;;;;;;5031602;28;20193;-65
2022/03/22 03:01:05;;;;;;;34.00;16.40;;;3.10;90.20;;;;;;5014393;28;20185;-66
2022/03/22 03:03:33;;;;;;;31.70;14.57;;;3.10;90.40;;;;;;5031512;28;20193;-66
2022/03/22 03:05:59;;;;;;;34.20;14.60;;;3.10;90.40;;;;;;5031805;28;20216;-66
2022/03/22 03:08:26;;;;;;;30.03;15.23;;;3.10;90.50;;;;;;5031388;28;20189;-66
2022/03/22 03:10:53;;;;;;;34.93;15.80;;;3.10;90.60;;;;;;5013996;28;20526;-66
2022/03/22 03:13:19;;;;;;;35.60;14.50;;;3.00;90.70;;;;;;5031554;28;20193;-66
2022/03/22 03:15:46;;;;;;;33.87;14.80;;;3.10;90.80;;;;;;5031510;28;20178;-66
2022/03/22 03:18:13;;;;;;;34.33;15.23;;;3.10;90.90;;;;;;5031912;28;20182;-66
2022/03/22 03:20:39;;;;;;;34.93;16.17;;;3.00;91.30;;;;;;5031109;28;20189;-66
2022/03/22 03:23:05;;;;;;;32.13;14.33;;;3.00;91.30;;;;;;5031612;28;20226;-66
2022/03/22 03:25:31;;;;;;;35.17;15.47;;;3.00;91.40;;;;;;5031044;28;20181;-66
2022/03/22 03:27:56;;;;;;;42.53;16.40;;;2.90;91.60;;;;;;5031384;28;20186;-66
2022/03/22 03:30:22;;;;;;;32.60;14.73;;;2.80;91.80;;;;;;5031528;28;20493;-66
2022/03/22 03:32:48;;;;;;;32.63;14.73;;;2.80;92.10;;;;;;5031142;28;20624;-66
2022/03/22 03:35:14;;;;;;;34.13;14.57;;;2.90;92.20;;;;;;5028231;28;20186;-66
2022/03/22 03:37:43;;;;;;;36.90;14.50;;;2.90;92.30;;;;;;5011952;28;20201;-66
2022/03/22 03:40:10;;;;;;;34.20;13.47;;;2.90;92.40;;;;;;5011926;28;20179;-66
2022/03/22 03:42:43;;;;;;;35.80;14.87;;;2.90;92.50;;;;;;5011282;28;20228;-66
2022/03/22 03:47:58;;;;;;;31.07;15.37;;;2.90;92.70;;;;;;5011728;28;20241;-66
2022/03/22 03:50:24;;;;;;;32.37;14.83;;;2.90;92.80;;;;;;5010484;28;20168;-66
2022/03/22 03:52:50;;;;;;;36.37;15.97;;;2.80;92.80;;;;;;5011444;28;20608;-65
2022/03/22 03:55:16;;;;;;;32.47;15.93;;;2.90;93.20;;;;;;5011652;28;20187;-66
2022/03/22 03:57:42;;;;;;;34.40;14.43;;;2.80;93.20;;;;;;5011275;28;20369;-66
2022/03/22 04:00:08;;;;;;;34.90;15.10;;;2.80;93.50;;;;;;5013812;28;20270;-66
2022/03/22 04:02:34;;;;;;;35.40;14.57;;;2.90;93.60;;;;;;5014972;28;20233;-65
2022/03/22 04:04:59;;;;;;;40.47;16.20;;;2.90;93.60;;;;;;5015032;28;20187;-66
2022/03/22 04:07:27;;;;;;;34.10;13.73;;;2.90;93.70;;;;;;5013684;28;20220;-64
2022/03/22 04:09:56;;;;;;;32.77;14.87;;;3.00;93.70;;;;;;5015101;28;20255;-65
2022/03/22 04:12:22;;;;;;;35.57;15.27;;;3.00;93.70;;;;;;5015231;28;20200;-65
2022/03/22 04:14:51;;;;;;;33.03;14.83;;;3.10;93.60;;;;;;5014615;28;20170;-66
2022/03/22 04:17:17;;;;;;;25.93;11.40;;;3.10;93.70;;;;;;5014005;28;20575;-65
2022/03/22 04:19:43;;;;;;;29.53;14.17;;;3.10;93.70;;;;;;5014343;28;20627;-65
2022/03/22 04:22:09;;;;;;;37.20;14.70;;;3.20;93.60;;;;;;5013611;28;20194;-65
2022/03/22 04:24:35;;;;;;;30.13;11.93;;;3.20;93.50;;;;;;5014589;28;20253;-66
2022/03/22 04:32:41;;;;;;;32.33;14.43;;;3.40;93.50;;;;;;5030038;28;20513;-67
2022/03/22 04:35:08;;;;;;;35.80;16.15;;;3.40;93.40;;;;;;5027491;28;20593;-65
2022/03/22 04:37:34;;;;;;;30.23;13.63;;;3.40;93.30;;;;;;5015940;28;20228;-65
2022/03/22 04:40:00;;;;;;;35.83;13.93;;;3.50;93.20;;;;;;5030833;28;20317;-65
2022/03/22 04:42:26;;;;;;;37.63;16.23;;;3.50;93.10;;;;;;5026405;28;20647;-67
2022/03/22 04:44:52;;;;;;;31.33;12.97;;;3.50;93.20;;;;;;5023520;28;20321;-67
2022/03/22 04:47:18;;;;;;;32.30;12.80;;;3.60;93.20;;;;;;5026791;28;20301;-66
2022/03/22 04:49:44;;;;;;;38.97;15.23;;;3.60;93.20;;;;;;5025725;28;20707;-66
2022/03/22 04:57:38;;;;;;;34.17;14.53;;;3.60;93.20;;;;;;5025560;28;20196;-67
2022/03/22 05:00:05;;;;;;;33.67;12.90;;;3.60;93.30;;;;;;5028806;28;20179;-66
2022/03/22 05:02:31;;;;;;;31.53;15.17;;;3.60;93.20;;;;;;5024561;28;20181;-67
2022/03/22 05:04:57;;;;;;;29.03;12.47;;;3.70;93.30;;;;;;5029373;28;20180;-67
2022/03/22 05:07:23;;;;;;;29.87;13.13;;;3.70;93.30;;;;;;5023517;28;20614;-67
2022/03/22 05:09:48;;;;;;;29.67;12.57;;;3.70;93.70;;;;;;5030177;28;22373;-67
2022/03/22 05:12:14;;;;;;;25.33;11.63;;;3.70;93.20;;;;;;5020466;28;20201;-67
2022/03/22 05:14:43;;;;;;;30.10;11.67;;;3.80;93.20;;;;;;5025669;28;20184;-70
2022/03/22 05:17:11;;;;;;;25.37;11.57;;;3.80;93.10;;;;;;5020876;28;20228;-66
2022/03/22 05:19:38;;;;;;;32.60;14.60;;;3.80;93.10;;;;;;5031653;28;20205;-67
2022/03/22 05:22:04;;;;;;;25.30;10.53;;;3.90;93.30;;;;;;5020082;28;20218;-63
2022/03/22 05:24:30;;;;;;;36.37;14.97;;;3.90;93.10;;;;;;5022086;28;20571;-62
2022/03/22 05:26:56;;;;;;;26.17;12.57;;;4.00;93.10;;;;;;5030172;28;20241;-63
2022/03/22 05:29:22;;;;;;;39.10;15.33;;;4.00;93.10;;;;;;5014852;28;20193;-69
2022/03/22 05:31:47;;;;;;;30.27;13.37;;;4.00;93.10;;;;;;5032446;28;20228;-61
2022/03/22 05:34:13;;;;;;;44.67;15.87;;;4.00;93.20;;;;;;5032831;28;20179;-66
2022/03/22 05:36:39;;;;;;;41.77;15.33;;;4.10;93.30;;;;;;5015747;28;20198;-60
2022/03/22 05:39:05;;;;;;;48.23;17.80;;;4.10;93.30;;;;;;5012561;28;20489;-64
2022/03/22 05:41:30;;;;;;;38.20;16.20;;;4.10;93.30;;;;;;5011854;28;20207;-63
2022/03/22 05:43:56;;;;;;;41.10;16.60;;;4.10;93.60;;;;;;5012072;28;20183;-68
2022/03/22 05:46:22;;;;;;;42.20;17.17;;;4.20;93.30;;;;;;5011181;28;20263;-68
2022/03/22 05:48:48;;;;;;;35.77;16.83;;;4.20;93.40;;;;;;5010430;28;20239;-68
2022/03/22 05:51:16;;;;;;;33.60;15.30;;;4.30;93.10;;;;;;5010910;28;20642;-68
2022/03/22 05:53:46;;;;;;;47.73;17.00;;;4.40;93.10;;;;;;4993382;28;20679;-69
2022/03/22 05:56:12;;;;;;;36.93;15.87;;;4.40;93.00;;;;;;5011999;28;20240;-69
2022/03/22 05:58:39;;;;;;;34.93;14.20;;;4.50;92.80;;;;;;4994159;28;20184;-68
2022/03/22 06:01:06;;;;;;;42.50;16.10;;;4.60;93.00;;;;;;5012043;28;20273;-68
2022/03/22 06:03:33;;;;;;;33.07;14.33;;;4.70;92.60;;;;;;5012600;28;20224;-64
2022/03/22 06:05:59;;;;;;;35.87;13.17;;;4.80;92.50;;;;;;5010288;28;20578;-68
2022/03/22 06:08:25;;;;;;;40.83;16.40;;;4.90;92.40;;;;;;5011915;28;20561;-68
2022/03/22 06:10:50;;;;;;;34.57;16.37;;;5.00;92.40;;;;;;5012037;28;20306;-70
2022/03/22 06:13:16;;;;;;;37.50;17.23;;;5.10;92.20;;;;;;5012101;28;20655;-70
2022/03/22 06:15:43;;;;;;;37.10;15.43;;;5.20;92.20;;;;;;5010481;28;20187;-68
2022/03/22 06:18:11;;;;;;;36.03;15.87;;;5.30;92.00;;;;;;5012012;28;20178;-70
2022/03/22 06:20:39;;;;;;;41.63;16.43;;;5.40;91.90;;;;;;5011403;28;20179;-69
2022/03/22 06:23:07;;;;;;;33.57;15.97;;;5.50;91.70;;;;;;4993393;28;20237;-68
2022/03/22 06:25:34;;;;;;;43.33;17.43;;;5.60;91.40;;;;;;4993919;28;20579;-64
2022/03/22 06:28:01;;;;;;;34.57;14.90;;;5.70;91.50;;;;;;5011773;28;20223;-70
2022/03/22 06:30:27;;;;;;;35.20;15.53;;;5.80;91.30;;;;;;5011840;28;20211;-67
2022/03/22 06:32:58;;;;;;;31.90;14.27;;;5.90;91.00;;;;;;5011338;28;20195;-69
2022/03/22 06:35:30;;;;;;;35.60;16.50;;;6.00;90.90;;;;;;5016374;28;20244;-69
2022/03/22 06:37:57;;;;;;;38.83;15.00;;;6.10;90.70;;;;;;5031340;28;20222;-70
2022/03/22 06:40:27;;;;;;;41.20;15.97;;;6.20;90.60;;;;;;5031256;28;20197;-69
2022/03/22 06:42:53;;;;;;;31.37;15.77;;;6.30;90.50;;;;;;5031436;28;20180;-69
2022/03/22 06:45:19;;;;;;;59.00;17.47;;;6.40;90.50;;;;;;5030061;28;20274;-70
2022/03/22 06:47:46;;;;;;;41.63;14.20;;;6.50;90.50;;;;;;5030855;28;20211;-69
2022/03/22 06:50:14;;;;;;;33.47;14.60;;;6.60;90.30;;;;;;5031678;28;20234;-69
2022/03/22 06:52:40;;;;;;;41.20;15.80;;;6.70;90.20;;;;;;5013310;28;20237;-68
2022/03/22 06:55:07;;;;;;;38.30;16.20;;;6.80;90.20;;;;;;5013394;28;20242;-68
2022/03/22 06:57:33;;;;;;;41.23;16.60;;;6.90;90.10;;;;;;5031594;28;20196;-67
2022/03/22 07:00:00;;;;;;;33.53;15.83;;;7.00;90.00;;;;;;5030872;28;20669;-69
2022/03/22 07:02:26;;;;;;;36.27;14.43;;;7.20;89.80;;;;;;5013071;28;20648;-69
2022/03/22 07:04:52;;;;;;;38.70;15.47;;;7.30;89.70;;;;;;5031063;28;20178;-69
2022/03/22 07:07:18;;;;;;;30.23;14.40;;;7.50;89.20;;;;;;5029871;28;20222;-70
2022/03/22 07:09:45;;;;;;;30.70;14.80;;;7.60;88.80;;;;;;5030963;28;20539;-70
2022/03/22 07:12:13;;;;;;;30.10;14.17;;;7.70;88.70;;;;;;5024999;28;20268;-61
2022/03/22 07:14:40;;;;;;;34.53;13.20;;;7.80;88.40;;;;;;5020009;28;20353;-62
2022/03/22 07:17:08;;;;;;;43.67;15.30;;;7.90;88.10;;;;;;5002461;28;20666;-62
2022/03/22 07:19:34;;;;;;;26.93;13.50;;;8.00;87.90;;;;;;5020236;28;20188;-62
2022/03/22 07:22:01;;;;;;;40.30;15.03;;;8.00;87.60;;;;;;5020175;28;20692;-60
2022/03/22 07:24:27;;;;;;;38.80;16.33;;;8.10;87.90;;;;;;5018908;28;20459;-61
2022/03/22 07:26:53;;;;;;;35.00;15.10;;;8.10;87.20;;;;;;5017127;28;20889;-64
2022/03/22 07:29:19;;;;;;;38.30;16.17;;;8.20;87.10;;;;;;5019119;28;20225;-61
2022/03/22 07:31:44;;;;;;;32.90;15.37;;;8.20;87.40;;;;;;5020346;28;20219;-62
2022/03/22 07:34:15;;;;;;;32.83;13.47;;;8.30;86.80;;;;;;5020079;28;20662;-62
2022/03/22 07:36:44;;;;;;;36.87;15.00;;;8.40;86.80;;;;;;5023340;28;20269;-61
2022/03/22 07:39:11;;;;;;;39.47;15.30;;;8.60;86.40;;;;;;5023680;28;20179;-63
2022/03/22 07:41:38;;;;;;;34.33;14.47;;;8.70;86.00;;;;;;5017612;28;20196;-62
2022/03/22 07:44:05;;;;;;;30.90;14.53;;;8.80;85.30;;;;;;5025811;28;20259;-62
2022/03/22 07:46:33;;;;;;;31.60;13.60;;;9.00;85.20;;;;;;5006295;28;20277;-61
2022/03/22 07:54:31;;;;;;;32.87;12.33;;;9.20;83.70;;;;;;5020503;28;20223;-65
2022/03/22 07:56:57;;;;;;;24.67;11.27;;;9.40;83.80;;;;;;5016370;28;20232;-66
2022/03/22 07:59:25;;;;;;;29.93;12.47;;;9.50;83.30;;;;;;5019586;28;20189;-63
2022/03/22 08:01:51;;;;;;;30.10;12.20;;;9.60;83.20;;;;;;4999138;28;20189;-62
2022/03/22 08:04:17;;;;;;;24.90;10.83;;;9.70;82.90;;;;;;5000351;28;20219;-65
2022/03/22 08:06:43;;;;;;;28.03;12.27;;;9.80;82.50;;;;;;5023353;28;20290;-64
2022/03/22 08:09:09;;;;;;;24.43;9.63;;;9.90;82.60;;;;;;5021154;28;20285;-65
2022/03/22 08:11:36;;;;;;;30.93;11.00;;;9.90;82.00;;;;;;5021453;28;20303;-70
2022/03/22 08:14:04;;;;;;;20.57;8.40;;;10.00;82.00;;;;;;5021470;28;20290;-65
2022/03/22 08:16:31;;;;;;;23.57;9.80;;;10.20;81.90;;;;;;5022772;28;20372;-62
2022/03/22 08:18:56;;;;;;;26.23;7.87;;;10.20;81.80;;;;;;5006098;28;20932;-62
2022/03/22 08:21:22;;;;;;;28.47;7.10;;;10.30;82.20;;;;;;5022444;28;20236;-63
2022/03/22 08:23:48;;;;;;;16.63;6.03;;;10.50;82.10;;;;;;5023807;28;20196;-64
2022/03/22 08:26:14;;;;;;;21.87;6.33;;;10.70;81.30;;;;;;5022876;28;20241;-65
2022/03/22 08:28:40;;;;;;;17.50;5.40;;;10.70;80.80;;;;;;5004717;28;20186;-64
2022/03/22 08:31:06;;;;;;;17.33;5.33;;;10.80;80.30;;;;;;5023130;28;20202;-64
2022/03/22 08:33:32;;;;;;;16.37;6.40;;;10.80;80.00;;;;;;5022814;28;20267;-71
2022/03/22 08:35:58;;;;;;;17.53;7.30;;;10.80;79.80;;;;;;4988369;28;20286;-69
2022/03/22 08:38:24;;;;;;;18.80;6.17;;;10.80;79.70;;;;;;5022950;28;20217;-71
2022/03/22 08:40:51;;;;;;;15.93;5.80;;;10.80;79.80;;;;;;5022268;28;20190;-70
2022/03/22 08:43:21;;;;;;;14.17;6.00;;;10.80;79.40;;;;;;5022695;28;20190;-71
2022/03/22 08:45:47;;;;;;;18.40;6.97;;;10.80;79.20;;;;;;5023314;28;20286;-72
2022/03/22 08:48:13;;;;;;;16.07;7.37;;;10.90;79.60;;;;;;5022004;28;20779;-73
2022/03/22 08:50:42;;;;;;;17.93;6.87;;;10.80;78.80;;;;;;5004149;28;20270;-72
2022/03/22 08:53:09;;;;;;;16.33;7.23;;;10.80;78.90;;;;;;5022483;28;20190;-73
2022/03/22 08:55:35;;;;;;;19.20;7.07;;;10.80;78.70;;;;;;5004781;28;20225;-75
2022/03/22 08:58:05;;;;;;;24.37;8.50;;;10.80;78.70;;;;;;5011689;28;20769;-74
2022/03/22 09:00:32;;;;;;;21.83;8.10;;;10.80;78.70;;;;;;5022349;28;20186;-77
2022/03/22 09:02:58;;;;;;;25.00;8.37;;;10.90;78.00;;;;;;5022234;28;20175;-76
2022/03/22 09:08:08;;;;;;;17.87;8.03;;;11.00;77.80;;;;;;5022131;28;20282;-74
2022/03/22 09:10:35;;;;;;;21.90;8.00;;;11.00;77.90;;;;;;5012775;28;20308;-76
2022/03/22 09:13:02;;;;;;;19.30;8.17;;;11.10;77.30;;;;;;5003813;28;20187;-77
2022/03/22 09:15:29;;;;;;;22.03;7.93;;;11.20;77.00;;;;;;5021825;28;20203;-74
2022/03/22 09:17:56;;;;;;;24.37;8.60;;;11.20;76.80;;;;;;5021399;28;20504;-76
2022/03/22 09:20:23;;;;;;;28.70;7.63;;;11.40;76.20;;;;;;5021638;28;20279;-76
2022/03/22 09:22:53;;;;;;;31.63;9.40;;;11.50;75.30;;;;;;5022261;28;20584;-75
2022/03/22 09:25:23;;;;;;;24.60;7.97;;;11.50;74.20;;;;;;5021926;28;20188;-76
2022/03/22 09:27:49;;;;;;;28.43;8.73;;;11.40;74.00;;;;;;5020951;28;20215;-76
2022/03/22 09:30:15;;;;;;;28.93;8.40;;;11.40;74.00;;;;;;5004455;28;20196;-74
2022/03/22 09:32:44;;;;;;;16.50;7.53;;;11.50;74.10;;;;;;5021848;28;20539;-69
2022/03/22 09:35:12;;;;;;;19.27;7.23;;;11.50;74.20;;;;;;5021746;28;20220;-75
2022/03/22 09:37:39;;;;;;;19.23;8.03;;;11.60;73.10;;;;;;5022200;28;20193;-76
2022/03/22 09:40:06;;;;;;;23.77;8.47;;;11.70;72.80;;;;;;5018585;28;20215;-77
2022/03/22 09:42:32;;;;;;;22.87;7.53;;;11.70;71.50;;;;;;4993836;28;20190;-75
2022/03/22 09:45:00;;;;;;;18.10;6.90;;;11.90;71.80;;;;;;5010887;28;20197;-73
2022/03/22 09:47:29;;;;;;;19.23;6.70;;;12.00;71.30;;;;;;5011283;28;20673;-76
2022/03/22 09:49:58;;;;;;;26.10;6.90;;;12.10;71.60;;;;;;5012079;28;20236;-75
2022/03/22 09:52:24;;;;;;;21.50;6.13;;;12.10;71.50;;;;;;4995288;28;20719;-77
2022/03/22 09:54:50;;;;;;;25.53;8.00;;;12.20;70.10;;;;;;5012163;28;20197;-75
2022/03/22 09:57:16;;;;;;;22.57;9.00;;;12.30;69.70;;;;;;5011973;28;20194;-76
2022/03/22 09:59:42;;;;;;;24.63;9.93;;;12.40;68.80;;;;;;5011982;28;20229;-71
2022/03/22 10:02:10;;;;;;;23.17;10.63;;;12.40;68.80;;;;;;5011877;28;20678;-75
2022/03/22 10:04:44;;;;;;;28.33;10.30;;;12.40;68.20;;;;;;5011905;28;20632;-78
2022/03/22 10:07:20;;;;;;;24.97;9.40;;;12.50;68.10;;;;;;5010892;28;20213;-74
2022/03/22 10:09:55;;;;;;;18.17;7.43;;;12.70;68.20;;;;;;5011432;28;20192;-77
2022/03/22 10:12:28;;;;;;;17.30;6.00;;;12.80;63.60;;;;;;5012071;28;20189;-76
2022/03/22 10:14:54;;;;;;;17.13;5.93;;;13.00;61.00;;;;;;5011642;28;20258;-76
2022/03/22 10:17:20;;;;;;;22.70;6.33;;;13.00;60.40;;;;;;5012304;28;20302;-75
2022/03/22 10:19:49;;;;;;;17.23;6.23;;;13.20;60.60;;;;;;5011636;28;20684;-77
2022/03/22 10:22:15;;;;;;;18.70;6.53;;;13.30;59.00;;;;;;5012555;28;20180;-76
2022/03/22 10:24:49;;;;;;;22.13;5.77;;;13.40;58.00;;;;;;5011828;28;20186;-76
2022/03/22 10:27:30;;;;;;;12.63;5.13;;;13.50;58.80;;;;;;5012785;28;20232;-74
2022/03/22 10:29:56;;;;;;;17.47;6.13;;;13.40;58.40;;;;;;5011389;28;20160;-75
2022/03/22 10:32:51;;;;;;;17.13;6.13;;;13.40;58.70;;;;;;5012055;28;20663;-77
2022/03/22 10:35:23;;;;;;;21.87;7.43;;;13.20;59.00;;;;;;4996138;28;20202;-78
2022/03/22 10:37:52;;;;;;;17.83;7.80;;;13.40;59.20;;;;;;5031006;28;20504;-78
2022/03/22 10:40:27;;;;;;;22.20;7.80;;;13.40;58.60;;;;;;5031350;28;20232;-75
2022/03/22 10:42:59;;;;;;;16.93;7.50;;;13.40;58.50;;;;;;5031301;28;20331;-78
2022/03/22 10:45:27;;;;;;;17.23;8.00;;;13.40;59.20;;;;;;5031397;28;20270;-77
2022/03/22 10:47:57;;;;;;;19.03;7.60;;;13.30;58.80;;;;;;5030674;28;20313;-77
2022/03/22 10:50:24;;;;;;;26.63;8.80;;;13.40;59.00;;;;;;5031166;28;20170;-76
2022/03/22 10:52:50;;;;;;;13.60;6.23;;;13.50;58.90;;;;;;5013718;28;20218;-78
2022/03/22 10:55:20;;;;;;;18.40;7.07;;;13.70;57.60;;;;;;5031435;28;20179;-75
2022/03/22 10:57:51;;;;;;;16.00;6.30;;;13.80;56.50;;;;;;5030925;28;20602;-68
2022/03/22 11:00:17;;;;;;;16.90;6.20;;;14.00;55.60;;;;;;5031556;28;20349;-75
2022/03/22 11:02:48;;;;;;;22.17;7.37;;;14.10;53.70;;;;;;5030872;28;20179;-75
2022/03/22 11:05:15;;;;;;;16.00;7.73;;;14.20;54.70;;;;;;5031028;28;20556;-76
2022/03/22 11:07:42;;;;;;;21.57;7.17;;;14.20;53.40;;;;;;5031244;28;20337;-77
2022/03/22 11:10:08;;;;;;;14.60;6.70;;;14.20;53.50;;;;;;5030849;28;20190;-75
2022/03/22 11:12:35;;;;;;;27.57;7.50;;;14.10;54.00;;;;;;5030749;28;20214;-76
2022/03/22 11:15:02;;;;;;;17.07;6.90;;;14.00;54.20;;;;;;5030813;28;20176;-77
2022/03/22 11:17:34;;;;;;;16.37;7.13;;;14.20;55.10;;;;;;5030802;28;20175;-77
2022/03/22 11:20:04;;;;;;;13.90;6.77;;;14.40;54.30;;;;;;5030769;28;20194;-77
2022/03/22 11:22:31;;;;;;;17.10;6.20;;;14.40;53.60;;;;;;5030455;28;20533;-79
2022/03/22 11:25:11;;;;;;;19.07;6.23;;;14.50;53.80;;;;;;5012740;28;20627;-78
2022/03/22 11:27:38;;;;;;;17.93;7.00;;;14.60;52.90;;;;;;5030761;28;20553;-76
2022/03/22 11:30:06;;;;;;;22.30;7.17;;;14.90;53.20;;;;;;5030282;28;20197;-77
2022/03/22 11:35:18;;;;;;;18.20;5.63;;;15.30;51.40;;;;;;5027502;28;20205;-76
2022/03/22 11:38:00;;;;;;;17.13;6.13;;;15.50;50.20;;;;;;5010897;28;20212;-77
2022/03/22 11:43:13;;;;;;;15.37;6.20;;;16.40;49.70;;;;;;5010745;28;20191;-76
2022/03/22 11:45:51;;;;;;;22.77;7.43;;;16.60;49.50;;;;;;5010426;28;20198;-76
2022/03/22 11:48:29;;;;;;;21.03;8.13;;;16.30;50.00;;;;;;5010584;28;20223;-77
2022/03/22 11:51:04;;;;;;;17.40;6.77;;;16.40;50.30;;;;;;5010592;28;20176;-75
2022/03/22 11:53:41;;;;;;;17.80;7.30;;;17.20;48.90;;;;;;5011126;28;20221;-75
2022/03/22 11:56:09;;;;;;;24.70;7.80;;;18.80;46.60;;;;;;5009900;28;20214;-78
2022/03/22 11:58:35;;;;;;;22.02;9.00;;;20.00;44.80;;;;;;5009564;28;20198;-78
2022/03/22 12:01:02;;;;;;;17.30;6.40;;;20.50;42.80;;;;;;5008960;28;20180;-77
2022/03/22 12:03:35;;;;;;;18.45;7.88;;;21.20;41.50;;;;;;5010089;28;20541;-76
2022/03/22 12:06:13;;;;;;;16.55;6.85;;;21.80;40.90;;;;;;5010109;28;20171;-76
2022/03/22 12:08:41;;;;;;;13.68;5.65;;;22.80;38.60;;;;;;5010251;28;20194;-76
2022/03/22 12:11:06;;;;;;;15.43;6.00;;;22.70;37.00;;;;;;5010215;28;20231;-76
2022/03/22 12:13:46;;;;;;;16.85;6.18;;;23.30;36.60;;;;;;5010647;28;20188;-77
2022/03/22 12:16:11;;;;;;;16.10;5.93;;;23.60;36.40;;;;;;5009053;28;20192;-75
2022/03/22 12:18:41;;;;;;;15.63;6.40;;;24.10;35.10;;;;;;5011496;28;20171;-77
2022/03/22 12:21:19;;;;;;;13.98;5.80;;;24.10;35.00;;;;;;5012925;28;20269;-77
2022/03/22 12:23:47;;;;;;;17.60;5.18;;;23.90;34.30;;;;;;5014327;28;20188;-78
2022/03/22 12:26:13;;;;;;;14.75;5.30;;;24.10;34.40;;;;;;5012195;28;20219;-77
2022/03/22 12:28:49;;;;;;;16.17;5.00;;;24.70;33.10;;;;;;5013981;28;20207;-77
2022/03/22 12:31:20;;;;;;;12.68;5.63;;;24.60;33.20;;;;;;5014011;28;20183;-79
2022/03/22 12:33:50;;;;;;;16.33;6.07;;;24.30;32.90;;;;;;5014355;28;20168;-77
2022/03/22 12:36:18;;;;;;;10.38;4.78;;;24.60;33.20;;;;;;4999367;28;20191;-78
2022/03/22 12:38:45;;;;;;;13.60;4.50;;;25.30;32.40;;;;;;5015555;28;20186;-76
2022/03/22 12:41:11;;;;;;;9.23;4.03;;;24.70;32.20;;;;;;5031010;28;20989;-74
2022/03/22 12:43:37;;;;;;;12.52;5.07;;;24.70;31.30;;;;;;5032290;28;20248;-75
2022/03/22 12:46:02;;;;;;;14.23;4.68;;;25.00;30.70;;;;;;5033202;28;20289;-76
2022/03/22 12:48:30;;;;;;;9.98;4.68;;;26.20;30.50;;;;;;5032461;28;20238;-75
2022/03/22 12:50:56;;;;;;;18.58;4.43;;;27.00;28.90;;;;;;5033774;28;20199;-73
2022/03/22 12:53:22;;;;;;;12.65;4.80;;;27.70;28.20;;;;;;5031097;28;20651;-74
2022/03/22 12:55:48;;;;;;;14.55;4.88;;;28.20;27.80;;;;;;5023345;28;20188;-74
2022/03/22 12:58:14;;;;;;;12.55;4.22;;;27.90;27.60;;;;;;5025135;28;20321;-77
2022/03/22 13:00:41;;;;;;;14.02;4.72;;;28.20;27.80;;;;;;5004614;28;20714;-76
2022/03/22 13:03:16;;;;;;;27.98;6.13;;;28.40;27.50;;;;;;4991469;28;20225;-74
2022/03/22 13:05:51;;;;;;;13.82;4.53;;;29.60;26.60;;;;;;5026552;28;20194;-73
2022/03/22 13:08:23;;;;;;;11.35;4.38;;;29.60;25.10;;;;;;5008855;28;20245;-74
2022/03/22 13:16:28;;;;;;;15.30;4.50;;;30.10;24.30;;;;;;5018721;28;20210;-75